createdAt,value
2023-03-27T00:00:05.489Z,965.98
2023-03-27T00:01:05.500Z,965.98
2023-03-27T00:02:05.520Z,966.02
2023-03-27T00:03:05.523Z,965.99
2023-03-27T00:04:05.480Z,966.03
2023-03-27T00:05:05.422Z,966.10
2023-03-27T00:06:05.407Z,966.08
2023-03-27T00:07:05.407Z,966.02
2023-03-27T00:08:05.382Z,966.05
2023-03-27T00:09:05.359Z,966.09
2023-03-27T00:10:05.321Z,966.02
2023-03-27T00:11:05.351Z,966.08
2023-03-27T00:12:05.299Z,965.99
2023-03-27T00:13:05.301Z,966.04
2023-03-27T00:14:05.293Z,966.08
2023-03-27T00:15:05.258Z,966.07
2023-03-27T00:16:05.288Z,966.04
2023-03-27T00:17:05.350Z,966.09
2023-03-27T00:18:05.277Z,966.10
2023-03-27T00:19:05.263Z,966.05
2023-03-27T00:20:05.193Z,966.04
2023-03-27T00:21:05.227Z,966.05
2023-03-27T00:22:05.178Z,966.04
2023-03-27T00:23:05.205Z,966.04
2023-03-27T00:24:05.166Z,966.09
2023-03-27T00:25:05.205Z,966.12
2023-03-27T00:26:05.140Z,966.03
2023-03-27T00:27:05.118Z,966.08
2023-03-27T00:28:05.145Z,966.03
2023-03-27T00:29:05.107Z,966.03
2023-03-27T00:30:05.091Z,966.00
2023-03-27T00:31:05.118Z,966.04
2023-03-27T00:32:05.055Z,966.05
2023-03-27T00:33:05.122Z,965.99
2023-03-27T00:34:05.033Z,965.96
2023-03-27T00:35:05.077Z,965.98
2023-03-27T00:36:05.083Z,966.00
2023-03-27T00:37:05.008Z,965.96
2023-03-27T00:38:04.974Z,965.96
2023-03-27T00:39:04.976Z,965.96
2023-03-27T00:40:04.986Z,965.97
2023-03-27T00:41:05.096Z,965.97
2023-03-27T00:42:04.938Z,966.04
2023-03-27T00:43:04.909Z,966.05
2023-03-27T00:44:04.906Z,965.93
2023-03-27T00:45:04.907Z,965.95
2023-03-27T00:46:04.899Z,965.97
2023-03-27T00:47:04.887Z,965.90
2023-03-27T00:48:04.868Z,965.97
2023-03-27T00:49:04.873Z,965.91
2023-03-27T00:50:04.853Z,965.98
2023-03-27T00:51:04.838Z,965.96
2023-03-27T00:52:04.847Z,965.95
2023-03-27T00:53:04.777Z,965.95
2023-03-27T00:54:04.790Z,965.95
2023-03-27T00:55:04.788Z,965.98
2023-03-27T00:56:04.851Z,965.99
2023-03-27T00:57:04.805Z,965.94
2023-03-27T00:58:04.711Z,965.94
2023-03-27T00:59:04.732Z,965.98
2023-03-27T01:00:04.702Z,965.95
2023-03-27T01:01:04.742Z,966.02
2023-03-27T01:02:04.680Z,965.95
2023-03-27T01:03:04.845Z,965.92
2023-03-27T01:04:04.641Z,965.89
2023-03-27T01:05:04.635Z,965.92
2023-03-27T01:06:04.616Z,965.96
2023-03-27T01:07:04.622Z,965.91
2023-03-27T01:08:04.582Z,965.93
2023-03-27T01:09:04.584Z,965.97
2023-03-27T01:10:04.590Z,965.98
2023-03-27T01:11:04.579Z,965.86
2023-03-27T01:12:04.565Z,965.86
2023-03-27T01:13:04.537Z,965.97
2023-03-27T01:14:04.529Z,965.93
2023-03-27T01:15:04.538Z,965.92
2023-03-27T01:16:04.563Z,965.97
2023-03-27T01:17:04.467Z,965.92
2023-03-27T01:18:04.587Z,965.95
2023-03-27T01:19:04.449Z,965.94
2023-03-27T01:20:04.468Z,966.06
2023-03-27T01:21:04.430Z,966.04
2023-03-27T01:22:04.416Z,966.06
2023-03-27T01:23:04.403Z,966.11
2023-03-27T01:24:04.371Z,965.98
2023-03-27T01:25:04.362Z,966.03
2023-03-27T01:26:04.399Z,966.02
2023-03-27T01:27:04.392Z,966.10
2023-03-27T01:28:04.325Z,966.12
2023-03-27T01:29:04.386Z,966.17
2023-03-27T01:30:04.355Z,966.10
2023-03-27T01:31:04.364Z,966.17
2023-03-27T01:32:04.277Z,966.12
2023-03-27T01:33:04.330Z,966.18
2023-03-27T01:34:04.254Z,966.23
2023-03-27T01:35:04.234Z,966.26
2023-03-27T01:36:04.321Z,966.19
2023-03-27T01:37:04.204Z,966.23
2023-03-27T01:38:04.203Z,966.26
2023-03-27T01:39:04.271Z,966.32
2023-03-27T01:40:04.240Z,966.29
2023-03-27T01:41:04.208Z,966.31
2023-03-27T01:42:04.194Z,966.29
2023-03-27T01:43:04.137Z,966.30
2023-03-27T01:44:04.110Z,966.43
2023-03-27T01:45:04.151Z,966.42
2023-03-27T01:46:04.099Z,966.49
2023-03-27T01:47:04.330Z,966.48
2023-03-27T01:48:04.120Z,966.49
2023-03-27T01:49:04.069Z,966.52
2023-03-27T01:50:04.043Z,966.52
2023-03-27T01:51:04.034Z,966.53
2023-03-27T01:52:04.053Z,966.58
2023-03-27T01:53:03.999Z,966.63
2023-03-27T01:54:04.009Z,966.57
2023-03-27T01:55:04.071Z,966.71
2023-03-27T01:56:03.968Z,966.60
2023-03-27T01:57:04.097Z,966.72
2023-03-27T01:58:03.962Z,966.78
2023-03-27T01:59:04.042Z,966.77
2023-03-27T02:00:17.447Z,966.86
2023-03-27T02:01:05.189Z,966.89
2023-03-27T02:02:03.899Z,966.80
2023-03-27T02:03:03.905Z,966.84
2023-03-27T02:04:03.878Z,966.90
2023-03-27T02:05:03.923Z,966.93
2023-03-27T02:06:03.855Z,966.97
2023-03-27T02:07:03.859Z,967.01
2023-03-27T02:08:03.811Z,966.99
2023-03-27T02:09:03.803Z,967.00
2023-03-27T02:10:03.798Z,967.01
2023-03-27T02:11:03.784Z,967.06
2023-03-27T02:12:03.790Z,967.06
2023-03-27T02:13:03.751Z,967.10
2023-03-27T02:14:03.723Z,967.11
2023-03-27T02:15:23.100Z,967.08
2023-03-27T02:16:04.806Z,967.18
2023-03-27T02:17:03.694Z,967.21
2023-03-27T02:18:03.730Z,967.22
2023-03-27T02:19:03.662Z,967.18
2023-03-27T02:20:03.660Z,967.25
2023-03-27T02:21:03.658Z,967.34
2023-03-27T02:22:03.702Z,967.35
2023-03-27T02:23:03.655Z,967.42
2023-03-27T02:24:03.638Z,967.47
2023-03-27T02:25:03.593Z,967.47
2023-03-27T02:26:03.599Z,967.45
2023-03-27T02:27:03.683Z,967.47
2023-03-27T02:28:03.562Z,967.51
2023-03-27T02:29:03.540Z,967.46
2023-03-27T02:30:03.529Z,967.54
2023-03-27T02:31:06.335Z,967.57
2023-03-27T02:32:04.580Z,967.59
2023-03-27T02:33:03.533Z,967.63
2023-03-27T02:34:03.500Z,967.64
2023-03-27T02:35:03.480Z,967.65
2023-03-27T02:36:03.556Z,967.72
2023-03-27T02:37:03.459Z,967.73
2023-03-27T02:38:03.416Z,967.80
2023-03-27T02:39:03.482Z,967.73
2023-03-27T02:40:03.387Z,967.74
2023-03-27T02:41:03.397Z,967.87
2023-03-27T02:42:03.401Z,967.85
2023-03-27T02:43:03.349Z,967.88
2023-03-27T02:44:03.368Z,967.99
2023-03-27T02:45:03.362Z,967.92
2023-03-27T02:46:03.339Z,968.04
2023-03-27T02:47:03.333Z,968.03
2023-03-27T02:48:03.339Z,968.11
2023-03-27T02:49:03.288Z,968.11
2023-03-27T02:50:03.281Z,968.14
2023-03-27T02:51:03.254Z,968.20
2023-03-27T02:52:03.276Z,968.20
2023-03-27T02:53:03.376Z,968.24
2023-03-27T02:54:03.259Z,968.25
2023-03-27T02:55:03.209Z,968.29
2023-03-27T02:56:03.174Z,968.33
2023-03-27T02:57:03.268Z,968.38
2023-03-27T02:58:03.264Z,968.34
2023-03-27T02:59:03.138Z,968.42
2023-03-27T03:00:03.169Z,968.42
2023-03-27T03:01:03.164Z,968.48
2023-03-27T03:02:03.159Z,968.57
2023-03-27T03:03:03.203Z,968.48
2023-03-27T03:04:03.108Z,968.56
2023-03-27T03:05:03.096Z,968.61
2023-03-27T03:06:03.067Z,968.61
2023-03-27T03:07:03.095Z,968.64
2023-03-27T03:08:03.061Z,968.62
2023-03-27T03:09:03.023Z,968.68
2023-03-27T03:10:03.052Z,968.73
2023-03-27T03:11:02.998Z,968.77
2023-03-27T03:12:03.027Z,968.80
2023-03-27T03:13:02.974Z,968.84
2023-03-27T03:14:02.951Z,968.82
2023-03-27T03:15:02.997Z,968.92
2023-03-27T03:16:02.922Z,968.87
2023-03-27T03:17:03.043Z,968.93
2023-03-27T03:18:02.997Z,968.97
2023-03-27T03:19:02.888Z,969.01
2023-03-27T03:20:02.947Z,969.01
2023-03-27T03:21:02.895Z,969.04
2023-03-27T03:22:02.848Z,969.11
2023-03-27T03:23:02.908Z,969.14
2023-03-27T03:24:02.828Z,969.21
2023-03-27T03:25:02.886Z,969.18
2023-03-27T03:26:02.827Z,969.18
2023-03-27T03:27:02.829Z,969.27
2023-03-27T03:28:02.805Z,969.29
2023-03-27T03:29:02.839Z,969.32
2023-03-27T03:30:02.824Z,969.34
2023-03-27T03:31:02.816Z,969.38
2023-03-27T03:32:02.789Z,969.46
2023-03-27T03:33:02.809Z,969.46
2023-03-27T03:34:02.703Z,969.49
2023-03-27T03:35:02.685Z,969.48
2023-03-27T03:36:02.723Z,969.51
2023-03-27T03:37:02.706Z,969.57
2023-03-27T03:38:02.637Z,969.57
2023-03-27T03:39:02.645Z,969.59
2023-03-27T03:40:02.622Z,969.62
2023-03-27T03:41:02.602Z,969.62
2023-03-27T03:42:02.614Z,969.68
2023-03-27T03:43:02.578Z,969.67
2023-03-27T03:44:02.576Z,969.76
2023-03-27T03:45:02.574Z,969.73
2023-03-27T03:46:02.611Z,969.82
2023-03-27T03:47:02.524Z,969.88
2023-03-27T03:48:02.556Z,969.87
2023-03-27T03:49:02.511Z,969.89
2023-03-27T04:02:44.933Z,970.38
2023-03-27T04:03:44.916Z,970.40
2023-03-27T04:04:46.564Z,970.51
2023-03-27T04:05:44.816Z,970.48
2023-03-27T04:06:44.810Z,970.46
2023-03-27T04:07:44.801Z,970.52
2023-03-27T04:08:44.817Z,970.53
2023-03-27T04:09:44.766Z,970.57
2023-03-27T04:10:44.769Z,970.64
2023-03-27T04:11:44.759Z,970.59
2023-03-27T04:12:44.728Z,970.70
2023-03-27T04:13:44.702Z,970.75
2023-03-27T04:14:44.694Z,970.71
2023-03-27T04:15:44.750Z,970.77
2023-03-27T04:16:44.687Z,970.79
2023-03-27T04:17:44.777Z,970.81
2023-03-27T04:18:44.699Z,970.77
2023-03-27T04:19:44.659Z,970.80
2023-03-27T04:20:44.662Z,970.81
2023-03-27T04:21:44.622Z,970.87
2023-03-27T04:22:44.598Z,970.85
2023-03-27T04:23:44.585Z,970.85
2023-03-27T04:24:44.594Z,970.93
2023-03-27T04:25:44.648Z,970.92
2023-03-27T04:26:44.580Z,970.93
2023-03-27T04:27:44.539Z,970.99
2023-03-27T04:28:44.600Z,970.98
2023-03-27T04:29:44.573Z,970.96
2023-03-27T04:30:44.546Z,970.99
2023-03-27T04:31:44.557Z,971.08
2023-03-27T04:32:44.494Z,971.10
2023-03-27T04:33:44.483Z,971.07
2023-03-27T04:34:44.477Z,971.09
2023-03-27T04:35:44.496Z,971.12
2023-03-27T04:36:44.441Z,971.16
2023-03-27T04:37:44.423Z,971.12
2023-03-27T04:38:44.405Z,971.19
2023-03-27T04:39:44.389Z,971.15
2023-03-27T04:40:44.417Z,971.22
2023-03-27T04:41:44.371Z,971.23
2023-03-27T04:42:44.352Z,971.31
2023-03-27T04:43:44.391Z,971.35
2023-03-27T04:44:44.362Z,971.33
2023-03-27T04:45:44.324Z,971.37
2023-03-27T04:46:44.423Z,971.44
2023-03-27T04:47:44.477Z,971.41
2023-03-27T04:48:44.301Z,971.46
2023-03-27T04:49:44.261Z,971.48
2023-03-27T04:50:44.259Z,971.55
2023-03-27T04:51:44.242Z,971.57
2023-03-27T04:52:44.232Z,971.61
2023-03-27T04:53:44.226Z,971.60
2023-03-27T04:54:44.201Z,971.62
2023-03-27T04:55:44.190Z,971.65
2023-03-27T04:56:44.195Z,971.75
2023-03-27T04:57:44.167Z,971.78
2023-03-27T04:58:44.164Z,971.73
2023-03-27T04:59:44.132Z,971.81
2023-03-27T05:00:44.153Z,971.86
2023-03-27T05:01:44.128Z,971.81
2023-03-27T05:02:44.186Z,971.87
2023-03-27T05:03:44.136Z,971.90
2023-03-27T05:04:44.073Z,971.95
2023-03-27T05:05:44.069Z,972.03
2023-03-27T05:06:44.041Z,972.08
2023-03-27T05:07:44.031Z,972.03
2023-03-27T05:08:44.046Z,972.11
2023-03-27T05:09:44.046Z,972.14
2023-03-27T05:10:44.062Z,972.19
2023-03-27T05:11:43.964Z,972.19
2023-03-27T05:12:43.963Z,972.27
2023-03-27T05:13:43.964Z,972.33
2023-03-27T05:14:43.936Z,972.30
2023-03-27T05:15:43.919Z,972.30
2023-03-27T05:16:44.064Z,972.38
2023-03-27T05:17:43.905Z,972.35
2023-03-27T05:18:43.912Z,972.40
2023-03-27T05:19:43.874Z,972.43
2023-03-27T05:20:43.876Z,972.49
2023-03-27T05:21:43.896Z,972.48
2023-03-27T05:22:43.827Z,972.55
2023-03-27T05:23:43.861Z,972.65
2023-03-27T05:24:43.839Z,972.67
2023-03-27T05:25:43.797Z,972.72
2023-03-27T05:26:43.798Z,972.72
2023-03-27T05:27:43.806Z,972.78
2023-03-27T05:28:43.749Z,972.85
2023-03-27T05:29:46.797Z,972.85
2023-03-27T05:30:43.772Z,972.87
2023-03-27T05:31:43.727Z,972.94
2023-03-27T05:32:43.914Z,973.03
2023-03-27T05:33:43.680Z,972.94
2023-03-27T05:34:43.669Z,972.95
2023-03-27T05:35:43.681Z,972.98
2023-03-27T05:36:43.656Z,973.00
2023-03-27T05:37:43.629Z,973.07
2023-03-27T05:38:43.650Z,973.06
2023-03-27T05:39:43.652Z,973.07
2023-03-27T05:40:43.602Z,973.06
2023-03-27T05:41:43.587Z,973.05
2023-03-27T05:42:43.572Z,973.01
2023-03-27T05:43:43.551Z,973.08
2023-03-27T05:44:43.528Z,973.10
2023-03-27T05:45:43.546Z,973.09
2023-03-27T05:46:43.608Z,973.18
2023-03-27T05:47:43.534Z,973.16
2023-03-27T05:48:43.484Z,973.15
2023-03-27T05:49:43.495Z,973.19
2023-03-27T05:50:43.473Z,973.19
2023-03-27T05:51:47.180Z,973.24
2023-03-27T05:52:43.446Z,973.28
2023-03-27T05:53:43.442Z,973.23
2023-03-27T05:54:43.423Z,973.33
2023-03-27T05:55:43.410Z,973.35
2023-03-27T05:56:43.467Z,973.41
2023-03-27T05:57:43.384Z,973.47
2023-03-27T05:58:43.375Z,973.40
2023-03-27T05:59:43.383Z,973.52
2023-03-27T06:00:43.344Z,973.53
2023-03-27T06:01:43.352Z,973.50
2023-03-27T06:02:43.527Z,973.54
2023-03-27T06:03:43.454Z,973.62
2023-03-27T06:04:43.336Z,973.67
2023-03-27T06:05:43.315Z,973.66
2023-03-27T06:06:43.280Z,973.70
2023-03-27T06:07:43.747Z,973.76
2023-03-27T06:08:43.235Z,973.77
2023-03-27T06:09:43.223Z,973.79
2023-03-27T06:10:43.257Z,973.83
2023-03-27T06:11:43.238Z,973.83
2023-03-27T06:12:43.210Z,973.88
2023-03-27T06:13:43.175Z,973.94
2023-03-27T06:14:43.169Z,973.99
2023-03-27T06:15:43.305Z,973.99
2023-03-27T06:16:43.124Z,974.05
2023-03-27T06:17:43.140Z,974.07
2023-03-27T06:18:43.096Z,974.03
2023-03-27T06:19:43.093Z,974.06
2023-03-27T06:20:43.086Z,974.08
2023-03-27T06:21:43.091Z,974.09
2023-03-27T06:22:43.077Z,974.16
2023-03-27T06:23:43.048Z,974.14
2023-03-27T06:24:43.022Z,974.21
2023-03-27T06:25:43.026Z,974.19
2023-03-27T06:26:43.037Z,974.23
2023-03-27T06:27:43.004Z,974.31
2023-03-27T06:28:42.978Z,974.29
2023-03-27T06:29:42.971Z,974.31
2023-03-27T06:30:42.963Z,974.38
2023-03-27T06:31:42.976Z,974.38
2023-03-27T06:32:43.001Z,974.33
2023-03-27T06:33:42.935Z,974.46
2023-03-27T06:34:42.915Z,974.40
2023-03-27T06:35:42.934Z,974.44
2023-03-27T06:36:42.910Z,974.42
2023-03-27T06:37:42.883Z,974.48
2023-03-27T06:38:42.872Z,974.51
2023-03-27T06:39:42.851Z,974.54
2023-03-27T06:40:42.816Z,974.60
2023-03-27T06:41:42.814Z,974.55
2023-03-27T06:42:43.309Z,974.66
2023-03-27T06:43:42.818Z,974.61
2023-03-27T06:44:42.848Z,974.58
2023-03-27T06:45:42.772Z,974.59
2023-03-27T06:46:45.411Z,974.63
2023-03-27T06:47:53.953Z,974.64
2023-03-27T06:48:43.795Z,974.65
2023-03-27T06:49:42.710Z,974.71
2023-03-27T06:50:42.696Z,974.75
2023-03-27T06:51:42.701Z,974.74
2023-03-27T06:52:42.682Z,974.80
2023-03-27T06:53:42.659Z,974.85
2023-03-27T06:54:42.649Z,974.84
2023-03-27T06:55:42.632Z,974.83
2023-03-27T06:56:42.628Z,974.82
2023-03-27T06:57:42.624Z,974.87
2023-03-27T06:58:42.591Z,974.87
2023-03-27T06:59:42.594Z,974.93
2023-03-27T07:00:42.574Z,974.93
2023-03-27T07:01:42.633Z,974.94
2023-03-27T07:02:42.659Z,974.98
2023-03-27T07:03:42.526Z,975.06
2023-03-27T07:04:51.144Z,975.14
2023-03-27T07:05:43.613Z,975.10
2023-03-27T07:06:42.504Z,975.13
2023-03-27T07:07:42.517Z,975.12
2023-03-27T07:08:42.483Z,975.17
2023-03-27T07:09:42.433Z,975.27
2023-03-27T07:10:42.442Z,975.24
2023-03-27T07:11:42.419Z,975.25
2023-03-27T07:12:42.410Z,975.24
2023-03-27T07:13:42.572Z,975.31
2023-03-27T07:14:42.399Z,975.28
2023-03-27T07:15:42.365Z,975.34
2023-03-27T07:16:42.432Z,975.43
2023-03-27T07:17:48.751Z,975.48
2023-03-27T07:18:43.333Z,975.52
2023-03-27T07:19:42.311Z,975.50
2023-03-27T07:20:42.299Z,975.57
2023-03-27T07:21:42.300Z,975.49
2023-03-27T07:22:42.316Z,975.56
2023-03-27T07:23:42.266Z,975.54
2023-03-27T07:24:42.266Z,975.53
2023-03-27T07:25:42.241Z,975.65
2023-03-27T07:26:42.227Z,975.65
2023-03-27T07:27:42.198Z,975.70
2023-03-27T07:28:42.224Z,975.67
2023-03-27T07:29:42.188Z,975.72
2023-03-27T07:30:42.188Z,975.73
2023-03-27T07:31:55.851Z,975.75
2023-03-27T07:32:43.341Z,975.82
2023-03-27T07:33:42.197Z,975.85
2023-03-27T07:34:42.120Z,975.86
2023-03-27T07:35:42.134Z,975.94
2023-03-27T07:36:42.107Z,975.91
2023-03-27T07:37:42.096Z,975.98
2023-03-27T07:38:42.117Z,975.97
2023-03-27T07:39:42.058Z,975.96
2023-03-27T07:40:42.063Z,976.05
2023-03-27T07:41:42.034Z,976.02
2023-03-27T07:42:42.034Z,976.09
2023-03-27T07:43:42.269Z,976.09
2023-03-27T07:44:41.999Z,976.23
2023-03-27T07:45:42.137Z,976.22
2023-03-27T07:46:41.964Z,976.19
2023-03-27T07:47:41.968Z,976.25
2023-03-27T07:48:41.964Z,976.31
2023-03-27T07:49:41.952Z,976.25
2023-03-27T07:50:41.919Z,976.33
2023-03-27T07:51:41.917Z,976.34
2023-03-27T07:52:41.901Z,976.48
2023-03-27T07:53:41.892Z,976.45
2023-03-27T07:54:41.861Z,976.49
2023-03-27T07:55:41.862Z,976.51
2023-03-27T07:56:41.903Z,976.52
2023-03-27T07:57:57.210Z,976.57
2023-03-27T07:58:42.841Z,976.49
2023-03-27T07:59:41.778Z,976.52
2023-03-27T08:00:41.799Z,976.56
2023-03-27T08:01:41.781Z,976.61
2023-03-27T08:02:41.823Z,976.51
2023-03-27T08:03:41.932Z,976.63
2023-03-27T08:04:41.923Z,976.60
2023-03-27T08:05:41.751Z,976.66
2023-03-27T08:06:41.714Z,976.67
2023-03-27T08:07:41.715Z,976.71
2023-03-27T08:08:41.726Z,976.71
2023-03-27T08:09:41.673Z,976.73
2023-03-27T08:10:41.687Z,976.74
2023-03-27T08:11:41.657Z,976.78
2023-03-27T08:12:41.861Z,976.81
2023-03-27T08:13:41.651Z,976.78
2023-03-27T08:14:41.612Z,976.74
2023-03-27T08:15:41.625Z,976.82
2023-03-27T08:16:41.603Z,976.82
2023-03-27T08:17:41.652Z,976.78
2023-03-27T08:18:41.594Z,976.81
2023-03-27T08:19:41.548Z,976.74
2023-03-27T08:20:41.544Z,976.83
2023-03-27T08:21:41.554Z,976.91
2023-03-27T08:22:41.529Z,976.83
2023-03-27T08:23:41.512Z,976.85
2023-03-27T08:24:41.486Z,976.97
2023-03-27T08:25:41.458Z,976.87
2023-03-27T08:26:41.468Z,976.87
2023-03-27T08:27:41.467Z,976.99
2023-03-27T08:28:41.440Z,976.93
2023-03-27T08:29:41.434Z,976.97
2023-03-27T08:30:41.432Z,976.98
2023-03-27T08:31:41.406Z,977.00
2023-03-27T08:32:41.488Z,977.01
2023-03-27T08:33:41.368Z,977.01
2023-03-27T08:34:41.355Z,977.00
2023-03-27T08:35:41.370Z,977.05
2023-03-27T08:36:41.317Z,977.03
2023-03-27T08:37:41.357Z,977.06
2023-03-27T08:38:41.318Z,977.08
2023-03-27T08:39:41.280Z,977.10
2023-03-27T08:40:41.284Z,977.11
2023-03-27T08:41:41.273Z,977.13
2023-03-27T08:42:41.267Z,977.16
2023-03-27T08:43:41.222Z,977.18
2023-03-27T08:44:41.360Z,977.17
2023-03-27T08:45:41.469Z,977.09
2023-03-27T08:46:41.248Z,977.06
2023-03-27T08:47:41.218Z,977.13
2023-03-27T08:48:41.169Z,977.14
2023-03-27T08:49:41.169Z,977.15
2023-03-27T08:50:41.144Z,977.27
2023-03-27T08:51:41.122Z,977.12
2023-03-27T08:52:41.157Z,977.34
2023-03-27T08:53:41.140Z,977.27
2023-03-27T08:54:41.112Z,977.25
2023-03-27T08:55:41.089Z,977.33
2023-03-27T08:56:41.132Z,977.37
2023-03-27T08:57:41.116Z,977.43
2023-03-27T08:58:41.063Z,977.43
2023-03-27T08:59:41.046Z,977.53
2023-03-27T09:00:41.036Z,977.39
2023-03-27T09:01:41.115Z,977.45
2023-03-27T09:02:41.076Z,977.60
2023-03-27T09:03:41.107Z,977.63
2023-03-27T09:04:40.989Z,977.63
2023-03-27T09:05:40.947Z,977.64
2023-03-27T09:06:40.936Z,977.68
2023-03-27T09:07:40.914Z,977.66
2023-03-27T09:08:40.959Z,977.65
2023-03-27T09:09:40.924Z,977.73
2023-03-27T09:10:40.890Z,977.71
2023-03-27T09:11:40.857Z,977.69
2023-03-27T09:12:43.516Z,977.67
2023-03-27T09:13:40.860Z,977.86
2023-03-27T09:14:40.844Z,977.77
2023-03-27T09:15:40.858Z,977.86
2023-03-27T09:16:40.840Z,977.75
2023-03-27T09:17:40.846Z,977.81
2023-03-27T09:18:40.807Z,977.74
2023-03-27T09:19:40.804Z,977.86
2023-03-27T09:20:40.788Z,977.98
2023-03-27T09:21:40.749Z,977.94
2023-03-27T09:22:40.785Z,977.95
2023-03-27T09:23:40.721Z,978.01
2023-03-27T09:24:40.734Z,977.99
2023-03-27T09:25:40.691Z,977.97
2023-03-27T09:26:40.677Z,977.97
2023-03-27T09:27:40.664Z,978.07
2023-03-27T09:28:40.654Z,978.15
2023-03-27T09:29:40.852Z,977.96
2023-03-27T09:30:40.610Z,978.06
2023-03-27T09:31:40.619Z,978.06
2023-03-27T09:32:40.652Z,978.05
2023-03-27T09:33:40.625Z,978.03
2023-03-27T09:34:40.597Z,978.08
2023-03-27T09:35:40.620Z,978.13
2023-03-27T09:36:40.555Z,978.02
2023-03-27T09:37:40.547Z,978.01
2023-03-27T09:38:40.518Z,978.00
2023-03-27T09:39:40.522Z,978.00
2023-03-27T09:40:40.512Z,978.02
2023-03-27T09:41:40.472Z,978.13
2023-03-27T09:42:40.471Z,978.06
2023-03-27T09:43:40.498Z,978.14
2023-03-27T09:44:40.483Z,978.25
2023-03-27T09:45:40.434Z,978.22
2023-03-27T09:46:40.559Z,978.22
2023-03-27T10:03:09.058Z,978.37
2023-03-27T10:04:09.005Z,978.40
2023-03-27T10:05:08.974Z,978.49
2023-03-27T10:06:08.956Z,978.35
2023-03-27T10:07:08.932Z,978.44
2023-03-27T10:08:08.920Z,978.43
2023-03-27T10:09:08.910Z,978.48
2023-03-27T10:10:08.935Z,978.46
2023-03-27T10:11:08.892Z,978.48
2023-03-27T10:12:08.899Z,978.43
2023-03-27T10:13:08.861Z,978.36
2023-03-27T10:14:08.847Z,978.48
2023-03-27T10:15:08.860Z,978.35
2023-03-27T10:16:08.857Z,978.46
2023-03-27T10:17:08.847Z,978.49
2023-03-27T10:18:08.868Z,978.48
2023-03-27T10:19:08.766Z,978.54
2023-03-27T10:20:08.807Z,978.49
2023-03-27T10:21:08.758Z,978.54
2023-03-27T10:22:08.748Z,978.52
2023-03-27T10:23:10.082Z,978.49
2023-03-27T10:24:08.715Z,978.57
2023-03-27T10:25:08.705Z,978.56
2023-03-27T10:26:08.700Z,978.52
2023-03-27T10:27:08.687Z,978.56
2023-03-27T10:28:08.669Z,978.61
2023-03-27T10:29:08.653Z,978.54
2023-03-27T10:30:08.696Z,978.67
2023-03-27T10:31:08.627Z,978.59
2023-03-27T10:32:08.705Z,978.58
2023-03-27T10:33:08.666Z,978.47
2023-03-27T10:34:08.610Z,978.64
2023-03-27T10:35:08.594Z,978.61
2023-03-27T10:36:08.632Z,978.50
2023-03-27T10:37:08.581Z,978.56
2023-03-27T10:38:08.534Z,978.61
2023-03-27T10:39:08.534Z,978.63
2023-03-27T10:40:08.513Z,978.62
2023-03-27T10:41:08.505Z,978.51
2023-03-27T10:42:08.506Z,978.53
2023-03-27T10:43:09.104Z,978.70
2023-03-27T10:44:08.455Z,978.67
2023-03-27T10:45:08.448Z,978.60
2023-03-27T10:46:08.519Z,978.72
2023-03-27T10:47:08.460Z,978.66
2023-03-27T10:48:08.452Z,978.66
2023-03-27T10:49:08.395Z,978.73
2023-03-27T10:50:08.384Z,978.72
2023-03-27T10:51:08.386Z,978.69
2023-03-27T10:52:08.398Z,978.80
2023-03-27T10:53:08.454Z,978.76
2023-03-27T10:54:08.543Z,978.80
2023-03-27T10:55:08.314Z,978.74
2023-03-27T10:56:08.383Z,978.71
2023-03-27T10:57:08.369Z,978.67
2023-03-27T10:58:08.297Z,978.80
2023-03-27T10:59:08.259Z,978.87
2023-03-27T11:00:08.257Z,978.83
2023-03-27T11:01:08.376Z,979.06
2023-03-27T11:02:09.486Z,978.83
2023-03-27T11:03:08.262Z,978.84
2023-03-27T11:04:08.263Z,978.85
2023-03-27T11:05:08.280Z,978.92
2023-03-27T11:06:08.211Z,978.86
2023-03-27T11:07:08.156Z,978.92
2023-03-27T11:08:08.210Z,978.93
2023-03-27T11:09:08.149Z,979.02
2023-03-27T11:10:08.123Z,978.96
2023-03-27T11:11:08.130Z,978.92
2023-03-27T11:12:08.100Z,979.00
2023-03-27T11:13:08.098Z,978.95
2023-03-27T11:14:08.102Z,978.95
2023-03-27T11:15:08.067Z,979.00
2023-03-27T11:16:08.077Z,978.90
2023-03-27T11:17:08.106Z,979.00
2023-03-27T11:18:08.121Z,979.01
2023-03-27T11:19:08.028Z,978.88
2023-03-27T11:20:08.023Z,979.13
2023-03-27T11:21:07.997Z,979.08
2023-03-27T11:22:07.962Z,979.07
2023-03-27T11:23:07.967Z,979.08
2023-03-27T11:24:07.955Z,979.20
2023-03-27T11:25:07.938Z,979.18
2023-03-27T11:26:07.945Z,979.27
2023-03-27T11:27:07.892Z,979.22
2023-03-27T11:28:07.906Z,979.13
2023-03-27T11:29:07.878Z,979.15
2023-03-27T11:30:07.889Z,979.16
2023-03-27T11:31:13.082Z,979.22
2023-03-27T11:32:08.857Z,979.19
2023-03-27T11:33:07.859Z,979.27
2023-03-27T11:34:07.837Z,979.29
2023-03-27T11:35:07.820Z,979.28
2023-03-27T11:36:07.872Z,979.24
2023-03-27T11:37:07.815Z,979.31
2023-03-27T11:38:07.802Z,979.29
2023-03-27T11:39:07.765Z,979.26
2023-03-27T11:40:07.757Z,979.21
2023-03-27T11:41:07.744Z,979.22
2023-03-27T11:42:07.736Z,979.18
2023-03-27T11:43:07.699Z,979.20
2023-03-27T11:44:07.711Z,979.15
2023-03-27T11:45:07.670Z,979.19
2023-03-27T11:46:07.722Z,979.12
2023-03-27T11:47:07.656Z,979.14
2023-03-27T11:48:10.678Z,979.15
2023-03-27T11:49:07.640Z,979.19
2023-03-27T11:50:07.631Z,979.08
2023-03-27T11:51:07.606Z,979.14
2023-03-27T11:52:07.579Z,979.10
2023-03-27T11:53:07.576Z,979.12
2023-03-27T11:54:07.590Z,979.09
2023-03-27T11:55:07.583Z,979.14
2023-03-27T11:56:07.580Z,979.08
2023-03-27T11:57:07.687Z,979.07
2023-03-27T11:58:07.516Z,979.05
2023-03-27T11:59:07.519Z,979.12
2023-03-27T12:00:07.495Z,978.99
2023-03-27T12:01:07.474Z,979.02
2023-03-27T12:02:07.455Z,979.03
2023-03-27T12:03:07.536Z,979.17
2023-03-27T12:04:07.526Z,979.19
2023-03-27T12:05:07.430Z,979.09
2023-03-27T12:06:07.436Z,979.09
2023-03-27T12:07:09.806Z,979.12
2023-03-27T12:08:07.371Z,979.12
2023-03-27T12:09:07.369Z,979.17
2023-03-27T12:10:07.380Z,979.18
2023-03-27T12:11:07.327Z,979.28
2023-03-27T12:12:07.338Z,979.31
2023-03-27T12:13:07.294Z,979.39
2023-03-27T12:14:17.551Z,979.40
2023-03-27T12:15:08.300Z,979.60
2023-03-27T12:16:07.289Z,979.73
2023-03-27T12:17:07.262Z,979.71
2023-03-27T12:18:07.283Z,979.68
2023-03-27T12:19:17.267Z,979.64
2023-03-27T12:20:08.216Z,979.64
2023-03-27T12:21:07.226Z,979.79
2023-03-27T12:22:14.268Z,979.71
2023-03-27T12:23:08.299Z,979.65
2023-03-27T12:24:07.186Z,979.59
2023-03-27T12:25:07.201Z,979.55
2023-03-27T12:26:07.138Z,979.51
2023-03-27T12:27:07.129Z,979.46
2023-03-27T12:28:07.120Z,979.54
2023-03-27T12:29:22.635Z,979.44
2023-03-27T12:30:08.153Z,979.52
2023-03-27T12:31:07.093Z,979.34
2023-03-27T12:32:07.120Z,979.36
2023-03-27T12:33:07.131Z,979.32
2023-03-27T12:34:07.041Z,979.30
2023-03-27T12:35:07.032Z,979.24
2023-03-27T12:36:07.080Z,979.25
2023-03-27T12:37:07.000Z,979.16
2023-03-27T12:38:07.022Z,979.19
2023-03-27T12:39:06.975Z,979.35
2023-03-27T12:40:06.996Z,979.19
2023-03-27T12:41:06.935Z,979.21
2023-03-27T12:42:06.919Z,979.25
2023-03-27T12:43:06.929Z,979.31
2023-03-27T12:44:06.914Z,979.27
2023-03-27T12:45:06.896Z,979.33
2023-03-27T12:46:07.148Z,979.26
2023-03-27T12:47:09.035Z,979.29
2023-03-27T12:48:06.890Z,979.24
2023-03-27T12:49:06.834Z,979.38
2023-03-27T12:50:06.905Z,979.42
2023-03-27T12:51:06.819Z,979.42
2023-03-27T12:52:06.801Z,979.42
2023-03-27T12:53:06.804Z,979.51
2023-03-27T12:54:06.791Z,979.47
2023-03-27T12:55:06.770Z,979.48
2023-03-27T12:56:06.756Z,979.50